sensor_id;sensor_type;location;lat;lon;timestamp;pressure;altitude;pressure_sealevel;temperature;humidity
57462;BME280;43308;47.306;8.608;2023-09-19T00:00:38;95241.34;;;17.04;74.55
57462;BME280;43308;47.306;8.608;2023-09-19T00:03:05;95238.88;;;16.98;74.43
57462;BME280;43308;47.306;8.608;2023-09-19T00:05:34;95244.25;;;16.98;75.16
57462;BME280;43308;47.306;8.608;2023-09-19T00:08:01;95248.31;;;16.92;74.98
57462;BME280;43308;47.306;8.608;2023-09-19T00:10:31;95245.63;;;16.92;74.65
57462;BME280;43308;47.306;8.608;2023-09-19T00:13:02;95252.38;;;16.86;75.12
57462;BME280;43308;47.306;8.608;2023-09-19T00:15:36;95228.75;;;16.83;74.32
57462;BME280;43308;47.306;8.608;2023-09-19T00:18:03;95258.44;;;16.95;74.68
57462;BME280;43308;47.306;8.608;2023-09-19T00:20:32;95262.25;;;16.94;74.40
57462;BME280;43308;47.306;8.608;2023-09-19T00:23:03;95252.81;;;16.88;75.16
57462;BME280;43308;47.306;8.608;2023-09-19T00:25:31;95252.69;;;16.85;75.11
57462;BME280;43308;47.306;8.608;2023-09-19T00:28:01;95242.69;;;16.85;74.58
57462;BME280;43308;47.306;8.608;2023-09-19T00:30:27;95233.69;;;16.81;74.64
57462;BME280;43308;47.306;8.608;2023-09-19T00:32:53;95250.53;;;16.90;74.79
57462;BME280;43308;47.306;8.608;2023-09-19T00:35:23;95241.91;;;16.85;75.28
57462;BME280;43308;47.306;8.608;2023-09-19T00:37:53;95244.03;;;16.91;75.01
57462;BME280;43308;47.306;8.608;2023-09-19T00:40:19;95247.53;;;16.92;75.66
57462;BME280;43308;47.306;8.608;2023-09-19T00:42:47;95251.69;;;16.89;75.63
57462;BME280;43308;47.306;8.608;2023-09-19T00:45:15;95251.69;;;16.89;75.86
57462;BME280;43308;47.306;8.608;2023-09-19T00:47:44;95245.06;;;16.87;75.87
57462;BME280;43308;47.306;8.608;2023-09-19T00:50:11;95249.88;;;16.81;76.62
57462;BME280;43308;47.306;8.608;2023-09-19T00:52:42;95252.81;;;16.88;76.53
57462;BME280;43308;47.306;8.608;2023-09-19T00:55:08;95262.91;;;16.91;75.72
57462;BME280;43308;47.306;8.608;2023-09-19T00:57:36;95252.47;;;16.90;75.62
57462;BME280;43308;47.306;8.608;2023-09-19T01:00:05;95264.69;;;16.87;76.28
57462;BME280;43308;47.306;8.608;2023-09-19T01:02:36;95267.41;;;16.87;76.92
57462;BME280;43308;47.306;8.608;2023-09-19T01:05:03;95266.28;;;16.88;77.32
57462;BME280;43308;47.306;8.608;2023-09-19T01:07:33;95271.25;;;16.86;76.63
57462;BME280;43308;47.306;8.608;2023-09-19T01:10:09;95260.78;;;16.85;75.54
57462;BME280;43308;47.306;8.608;2023-09-19T01:12:45;95274.13;;;16.93;74.30
57462;BME280;43308;47.306;8.608;2023-09-19T01:15:37;95260.34;;;16.95;71.94
57462;BME280;43308;47.306;8.608;2023-09-19T01:26:18;95282.25;;;17.06;71.98
57462;BME280;43308;47.306;8.608;2023-09-19T01:32:41;95271.91;;;16.95;71.61
57462;BME280;43308;47.306;8.608;2023-09-19T01:35:08;95282.69;;;17.08;71.35
57462;BME280;43308;47.306;8.608;2023-09-19T01:37:38;95275.16;;;17.01;69.75
57462;BME280;43308;47.306;8.608;2023-09-19T01:40:04;95278.97;;;17.00;70.41
57462;BME280;43308;47.306;8.608;2023-09-19T01:50:46;95275.59;;;17.03;69.03
57462;BME280;43308;47.306;8.608;2023-09-19T01:53:24;95280.13;;;16.99;68.48
57462;BME280;43308;47.306;8.608;2023-09-19T01:55:57;95278.09;;;16.96;68.24
57462;BME280;43308;47.306;8.608;2023-09-19T02:01:00;95275.53;;;16.99;68.49
57462;BME280;43308;47.306;8.608;2023-09-19T02:03:27;95275.59;;;17.03;68.32
57462;BME280;43308;47.306;8.608;2023-09-19T02:05:54;95275.97;;;17.02;69.19
57462;BME280;43308;47.306;8.608;2023-09-19T02:08:21;95268.53;;;16.98;67.81
57462;BME280;43308;47.306;8.608;2023-09-19T02:10:50;95269.34;;;16.99;68.33
57462;BME280;43308;47.306;8.608;2023-09-19T02:13:22;95267.75;;;16.98;68.52
57462;BME280;43308;47.306;8.608;2023-09-19T02:15:51;95257.97;;;16.93;68.66
57462;BME280;43308;47.306;8.608;2023-09-19T02:18:18;95261.25;;;16.99;68.87
57462;BME280;43308;47.306;8.608;2023-09-19T02:20:44;95260.56;;;17.02;68.42
57462;BME280;43308;47.306;8.608;2023-09-19T02:23:12;95273.69;;;17.04;68.41
57462;BME280;43308;47.306;8.608;2023-09-19T02:25:38;95271.22;;;17.11;68.55
57462;BME280;43308;47.306;8.608;2023-09-19T02:28:07;95277.41;;;17.11;68.38
57462;BME280;43308;47.306;8.608;2023-09-19T02:30:34;95279.09;;;17.04;68.46
57462;BME280;43308;47.306;8.608;2023-09-19T02:33:01;95277.53;;;17.03;68.92
57462;BME280;43308;47.306;8.608;2023-09-19T02:35:28;95288.66;;;17.01;68.46
57462;BME280;43308;47.306;8.608;2023-09-19T02:37:53;95284.38;;;17.00;68.23
57462;BME280;43308;47.306;8.608;2023-09-19T02:40:20;95296.31;;;16.99;68.46
57462;BME280;43308;47.306;8.608;2023-09-19T02:42:55;95297.84;;;17.00;68.74
57462;BME280;43308;47.306;8.608;2023-09-19T02:45:22;95298.75;;;17.04;68.75
57462;BME280;43308;47.306;8.608;2023-09-19T02:47:49;95307.09;;;16.99;69.31
57462;BME280;43308;47.306;8.608;2023-09-19T02:50:15;95301.09;;;16.93;69.56
57462;BME280;43308;47.306;8.608;2023-09-19T02:52:42;95288.84;;;16.84;69.75
57462;BME280;43308;47.306;8.608;2023-09-19T02:55:15;95302.91;;;16.77;70.56
57462;BME280;43308;47.306;8.608;2023-09-19T02:57:50;95299.31;;;16.73;71.98
57462;BME280;43308;47.306;8.608;2023-09-19T03:00:18;95302.66;;;16.70;71.22
57462;BME280;43308;47.306;8.608;2023-09-19T03:02:55;95293.66;;;16.66;71.59
57462;BME280;43308;47.306;8.608;2023-09-19T03:05:22;95295.91;;;16.64;71.97
57462;BME280;43308;47.306;8.608;2023-09-19T03:07:49;95289.28;;;16.62;72.65
57462;BME280;43308;47.306;8.608;2023-09-19T03:10:20;95290.91;;;16.54;72.32
57462;BME280;43308;47.306;8.608;2023-09-19T03:12:47;95283.50;;;16.51;72.92
57462;BME280;43308;47.306;8.608;2023-09-19T03:15:14;95292.53;;;16.55;73.13
57462;BME280;43308;47.306;8.608;2023-09-19T03:17:47;95299.47;;;16.56;72.98
57462;BME280;43308;47.306;8.608;2023-09-19T03:20:18;95284.44;;;16.55;72.12
57462;BME280;43308;47.306;8.608;2023-09-19T03:22:47;95286.78;;;16.57;72.37
57462;BME280;43308;47.306;8.608;2023-09-19T03:25:15;95286.34;;;16.55;72.49
57462;BME280;43308;47.306;8.608;2023-09-19T03:27:44;95274.63;;;16.51;72.54
57462;BME280;43308;47.306;8.608;2023-09-19T03:30:10;95290.06;;;16.62;71.34
57462;BME280;43308;47.306;8.608;2023-09-19T03:32:48;95277.72;;;16.61;71.38
57462;BME280;43308;47.306;8.608;2023-09-19T03:35:16;95281.31;;;16.65;71.68
57462;BME280;43308;47.306;8.608;2023-09-19T03:37:42;95276.38;;;16.67;71.56
57462;BME280;43308;47.306;8.608;2023-09-19T03:40:09;95281.41;;;16.69;71.42
57462;BME280;43308;47.306;8.608;2023-09-19T03:42:40;95288.53;;;16.73;70.88
57462;BME280;43308;47.306;8.608;2023-09-19T03:45:09;95297.41;;;16.74;70.73
57462;BME280;43308;47.306;8.608;2023-09-19T03:47:40;95294.34;;;16.75;70.83
57462;BME280;43308;47.306;8.608;2023-09-19T03:50:07;95283.69;;;16.67;71.34
57462;BME280;43308;47.306;8.608;2023-09-19T03:52:34;95272.34;;;16.61;71.38
57462;BME280;43308;47.306;8.608;2023-09-19T03:55:00;95297.53;;;16.77;71.58
57462;BME280;43308;47.306;8.608;2023-09-19T03:57:29;95291.34;;;16.77;70.15
57462;BME280;43308;47.306;8.608;2023-09-19T03:59:54;95291.88;;;16.70;70.66
57462;BME280;43308;47.306;8.608;2023-09-19T04:02:21;95285.59;;;16.78;70.08
57462;BME280;43308;47.306;8.608;2023-09-19T04:04:51;95280.56;;;16.77;70.52
57462;BME280;43308;47.306;8.608;2023-09-19T04:07:18;95285.28;;;16.80;70.55
57462;BME280;43308;47.306;8.608;2023-09-19T04:09:46;95278.28;;;16.79;70.53
57462;BME280;43308;47.306;8.608;2023-09-19T04:12:11;95290.66;;;16.80;69.75
57462;BME280;43308;47.306;8.608;2023-09-19T04:14:37;95278.41;;;16.70;69.79
57462;BME280;43308;47.306;8.608;2023-09-19T04:17:04;95273.69;;;16.79;69.27
57462;BME280;43308;47.306;8.608;2023-09-19T04:19:31;95272.34;;;16.73;69.53
57462;BME280;43308;47.306;8.608;2023-09-19T04:21:57;95273.69;;;16.67;69.64
57462;BME280;43308;47.306;8.608;2023-09-19T04:24:22;95282.09;;;16.78;69.25
57462;BME280;43308;47.306;8.608;2023-09-19T04:26:48;95273.25;;;16.77;69.47
57462;BME280;43308;47.306;8.608;2023-09-19T04:29:14;95294.91;;;16.81;69.66
57462;BME280;43308;47.306;8.608;2023-09-19T04:31:40;95283.03;;;16.82;69.54
57462;BME280;43308;47.306;8.608;2023-09-19T04:34:06;95297.16;;;16.79;69.66
57462;BME280;43308;47.306;8.608;2023-09-19T04:36:34;95305.81;;;16.84;69.71
57462;BME280;43308;47.306;8.608;2023-09-19T04:39:03;95303.13;;;16.84;69.74
57462;BME280;43308;47.306;8.608;2023-09-19T04:41:32;95307.28;;;16.82;69.32
57462;BME280;43308;47.306;8.608;2023-09-19T04:43:59;95311.22;;;16.84;69.37
57462;BME280;43308;47.306;8.608;2023-09-19T04:46:25;95310.09;;;16.85;69.14
57462;BME280;43308;47.306;8.608;2023-09-19T04:48:51;95318.97;;;16.86;69.16
57462;BME280;43308;47.306;8.608;2023-09-19T04:51:16;95306.06;;;16.79;69.63
57462;BME280;43308;47.306;8.608;2023-09-19T04:53:44;95310.34;;;16.80;69.80
57462;BME280;43308;47.306;8.608;2023-09-19T04:56:09;95310.53;;;16.87;69.42
57462;BME280;43308;47.306;8.608;2023-09-19T04:58:35;95313.34;;;16.91;68.98
57462;BME280;43308;47.306;8.608;2023-09-19T05:01:00;95324.50;;;16.89;69.55
57462;BME280;43308;47.306;8.608;2023-09-19T05:03:27;95319.78;;;16.86;70.36
57462;BME280;43308;47.306;8.608;2023-09-19T05:05:53;95329.91;;;16.89;69.86
57462;BME280;43308;47.306;8.608;2023-09-19T05:08:18;95336.84;;;16.90;70.34
57462;BME280;43308;47.306;8.608;2023-09-19T05:10:44;95324.69;;;16.84;70.33
57462;BME280;43308;47.306;8.608;2023-09-19T05:13:10;95334.69;;;16.84;71.06
57462;BME280;43308;47.306;8.608;2023-09-19T05:15:37;95343.13;;;16.82;71.38
57462;BME280;43308;47.306;8.608;2023-09-19T05:18:03;95341.09;;;16.79;71.13
57462;BME280;43308;47.306;8.608;2023-09-19T05:20:29;95354.25;;;16.81;72.39
57462;BME280;43308;47.306;8.608;2023-09-19T05:23:05;95360.44;;;16.81;72.60
57462;BME280;43308;47.306;8.608;2023-09-19T05:25:36;95372.66;;;16.79;73.40
57462;BME280;43308;47.306;8.608;2023-09-19T05:28:09;95379.41;;;16.73;74.50
57462;BME280;43308;47.306;8.608;2023-09-19T05:30:37;95384.41;;;16.62;74.86
57462;BME280;43308;47.306;8.608;2023-09-19T05:33:04;95378.03;;;16.46;75.96
57462;BME280;43308;47.306;8.608;2023-09-19T05:35:31;95364.38;;;16.30;76.71
57462;BME280;43308;47.306;8.608;2023-09-19T05:37:57;95355.94;;;16.20;77.42
57462;BME280;43308;47.306;8.608;2023-09-19T05:40:24;95366.75;;;16.11;77.67
57462;BME280;43308;47.306;8.608;2023-09-19T05:42:50;95368.53;;;16.07;78.62
57462;BME280;43308;47.306;8.608;2023-09-19T05:45:17;95375.84;;;16.07;78.56
57462;BME280;43308;47.306;8.608;2023-09-19T05:47:51;95369.53;;;16.03;79.29
57462;BME280;43308;47.306;8.608;2023-09-19T05:50:21;95373.28;;;16.10;79.06
57462;BME280;43308;47.306;8.608;2023-09-19T05:52:54;95374.06;;;16.11;78.41
57462;BME280;43308;47.306;8.608;2023-09-19T05:55:21;95375.97;;;16.10;77.73
57462;BME280;43308;47.306;8.608;2023-09-19T05:57:51;95385.44;;;16.16;77.79
57462;BME280;43308;47.306;8.608;2023-09-19T06:00:18;95384.91;;;16.23;76.98
57462;BME280;43308;47.306;8.608;2023-09-19T06:02:58;95383.31;;;16.22;76.64
57462;BME280;43308;47.306;8.608;2023-09-19T06:05:24;95387.38;;;16.28;76.72
57462;BME280;43308;47.306;8.608;2023-09-19T06:07:52;95389.91;;;16.33;76.32
57462;BME280;43308;47.306;8.608;2023-09-19T06:10:18;95395.59;;;16.31;76.65
57462;BME280;43308;47.306;8.608;2023-09-19T06:12:48;95375.50;;;16.29;77.24
57462;BME280;43308;47.306;8.608;2023-09-19T06:15:14;95387.31;;;16.36;76.40
57462;BME280;43308;47.306;8.608;2023-09-19T06:17:51;95385.09;;;16.38;77.14
57462;BME280;43308;47.306;8.608;2023-09-19T06:20:20;95393.53;;;16.49;75.76
57462;BME280;43308;47.306;8.608;2023-09-19T06:22:48;95393.09;;;16.47;76.13
57462;BME280;43308;47.306;8.608;2023-09-19T06:25:15;95390.38;;;16.47;76.14
57462;BME280;43308;47.306;8.608;2023-09-19T06:27:51;95390.22;;;16.52;76.41
57462;BME280;43308;47.306;8.608;2023-09-19T06:30:20;95396.19;;;16.58;76.38
57462;BME280;43308;47.306;8.608;2023-09-19T06:32:45;95395.84;;;16.59;75.28
57462;BME280;43308;47.306;8.608;2023-09-19T06:35:12;95395.66;;;16.64;75.58
57462;BME280;43308;47.306;8.608;2023-09-19T06:37:39;95392.88;;;16.73;75.11
57462;BME280;43308;47.306;8.608;2023-09-19T06:40:09;95401.34;;;16.83;74.29
57462;BME280;43308;47.306;8.608;2023-09-19T06:53:56;95402.47;;;16.94;73.02
57462;BME280;43308;47.306;8.608;2023-09-19T06:56:23;95405.44;;;17.02;71.98
57462;BME280;43308;47.306;8.608;2023-09-19T06:58:50;95415.06;;;16.90;72.43
57462;BME280;43308;47.306;8.608;2023-09-19T07:01:17;95415.38;;;16.77;73.16
57462;BME280;43308;47.306;8.608;2023-09-19T07:03:44;95412.63;;;16.65;74.24
57462;BME280;43308;47.306;8.608;2023-09-19T07:06:11;95414.53;;;16.64;74.59
57462;BME280;43308;47.306;8.608;2023-09-19T07:08:36;95417.91;;;16.61;75.27
57462;BME280;43308;47.306;8.608;2023-09-19T07:11:04;95411.38;;;16.62;75.14
57462;BME280;43308;47.306;8.608;2023-09-19T07:13:32;95414.97;;;16.66;74.60
57462;BME280;43308;47.306;8.608;2023-09-19T07:16:00;95430.06;;;16.67;74.81
57462;BME280;43308;47.306;8.608;2023-09-19T07:18:28;95427.34;;;16.67;75.14
57462;BME280;43308;47.306;8.608;2023-09-19T07:20:59;95427.47;;;16.71;74.40
57462;BME280;43308;47.306;8.608;2023-09-19T07:23:30;95431.06;;;16.75;74.89
57462;BME280;43308;47.306;8.608;2023-09-19T07:26:01;95445.16;;;16.80;74.18
57462;BME280;43308;47.306;8.608;2023-09-19T07:28:26;95434.38;;;16.80;74.30
57462;BME280;43308;47.306;8.608;2023-09-19T07:30:53;95443.16;;;16.89;74.27
57462;BME280;43308;47.306;8.608;2023-09-19T07:33:19;95441.03;;;16.95;73.75
57462;BME280;43308;47.306;8.608;2023-09-19T07:35:46;95443.16;;;16.89;73.97
57462;BME280;43308;47.306;8.608;2023-09-19T07:38:12;95446.53;;;16.86;74.15
57462;BME280;43308;47.306;8.608;2023-09-19T07:40:38;95447.34;;;16.99;73.58
57462;BME280;43308;47.306;8.608;2023-09-19T07:43:04;95454.00;;;17.02;74.01
57462;BME280;43308;47.306;8.608;2023-09-19T07:45:31;95456.47;;;17.07;73.50
57462;BME280;43308;47.306;8.608;2023-09-19T07:47:57;95456.84;;;17.17;72.82
57462;BME280;43308;47.306;8.608;2023-09-19T07:50:22;95465.84;;;17.21;73.62
57462;BME280;43308;47.306;8.608;2023-09-19T07:52:49;95465.19;;;17.24;72.39
57462;BME280;43308;47.306;8.608;2023-09-19T07:55:22;95457.94;;;17.16;72.53
57462;BME280;43308;47.306;8.608;2023-09-19T07:57:54;95459.63;;;17.09;72.86
57462;BME280;43308;47.306;8.608;2023-09-19T08:00:20;95462.47;;;17.12;73.35
57462;BME280;43308;47.306;8.608;2023-09-19T08:02:45;95462.81;;;17.23;72.00
57462;BME280;43308;47.306;8.608;2023-09-19T08:05:12;95473.41;;;17.28;72.33
57462;BME280;43308;47.306;8.608;2023-09-19T08:07:43;95479.78;;;17.23;72.09
57462;BME280;43308;47.306;8.608;2023-09-19T08:10:10;95479.78;;;17.23;72.37
57462;BME280;43308;47.306;8.608;2023-09-19T08:12:40;95479.78;;;17.23;72.45
57462;BME280;43308;47.306;8.608;2023-09-19T08:15:16;95475.19;;;17.24;71.81
57462;BME280;43308;47.306;8.608;2023-09-19T08:17:42;95474.13;;;17.16;72.95
57462;BME280;43308;47.306;8.608;2023-09-19T08:20:09;95480.31;;;17.17;73.33
57462;BME280;43308;47.306;8.608;2023-09-19T08:22:52;95480.69;;;17.15;73.68
57462;BME280;43308;47.306;8.608;2023-09-19T08:25:21;95482.59;;;17.15;72.52
57462;BME280;43308;47.306;8.608;2023-09-19T08:27:47;95481.00;;;17.14;71.97
57462;BME280;43308;47.306;8.608;2023-09-19T08:30:18;95489.78;;;17.23;72.55
57462;BME280;43308;47.306;8.608;2023-09-19T08:32:45;95491.69;;;17.22;71.64
57462;BME280;43308;47.306;8.608;2023-09-19T08:35:14;95493.63;;;17.22;70.33
57462;BME280;43308;47.306;8.608;2023-09-19T08:37:39;95500.59;;;17.23;70.75
57462;BME280;43308;47.306;8.608;2023-09-19T08:40:05;95502.63;;;17.26;69.74
57462;BME280;43308;47.306;8.608;2023-09-19T08:42:50;95502.75;;;17.29;70.60
57462;BME280;43308;47.306;8.608;2023-09-19T08:45:17;95497.47;;;17.33;69.98
57462;BME280;43308;47.306;8.608;2023-09-19T08:47:52;95504.22;;;17.39;70.09
57462;BME280;43308;47.306;8.608;2023-09-19T08:50:27;95500.66;;;17.47;70.96
57462;BME280;43308;47.306;8.608;2023-09-19T08:52:55;95515.31;;;17.58;68.98
57462;BME280;43308;47.306;8.608;2023-09-19T08:55:28;95514.25;;;17.50;69.35
57462;BME280;43308;47.306;8.608;2023-09-19T08:58:00;95516.84;;;17.47;69.57
57462;BME280;43308;47.306;8.608;2023-09-19T09:00:30;95514.03;;;17.43;69.64
57462;BME280;43308;47.306;8.608;2023-09-19T09:02:58;95511.88;;;17.37;70.47
57462;BME280;43308;47.306;8.608;2023-09-19T09:05:24;95513.56;;;17.41;70.61
57462;BME280;43308;47.306;8.608;2023-09-19T09:07:52;95518.06;;;17.37;70.25
57462;BME280;43308;47.306;8.608;2023-09-19T09:10:21;95521.88;;;17.36;70.65
57462;BME280;43308;47.306;8.608;2023-09-19T09:12:51;95512.88;;;17.32;71.45
57462;BME280;43308;47.306;8.608;2023-09-19T09:15:18;95510.66;;;17.34;71.26
57462;BME280;43308;47.306;8.608;2023-09-19T09:17:47;95507.28;;;17.37;71.07
57462;BME280;43308;47.306;8.608;2023-09-19T09:20:14;95509.63;;;17.39;71.14
57462;BME280;43308;47.306;8.608;2023-09-19T09:22:50;95513.78;;;17.36;72.34
57462;BME280;43308;47.306;8.608;2023-09-19T09:25:16;95505.47;;;17.41;71.70
57462;BME280;43308;47.306;8.608;2023-09-19T09:27:43;95518.88;;;17.50;70.76
57462;BME280;43308;47.306;8.608;2023-09-19T09:30:34;95521.59;;;17.50;70.90
57462;BME280;43308;47.306;8.608;2023-09-19T09:33:13;95523.81;;;17.48;71.16
57462;BME280;43308;47.306;8.608;2023-09-19T09:38:26;95508.81;;;17.59;70.96
57462;BME280;43308;47.306;8.608;2023-09-19T09:40:59;95513.88;;;17.73;70.33
57462;BME280;43308;47.306;8.608;2023-09-19T09:43:35;95513.69;;;17.90;70.04
57462;BME280;43308;47.306;8.608;2023-09-19T09:54:16;95510.91;;;18.75;66.61
57462;BME280;43308;47.306;8.608;2023-09-19T09:57:12;95508.25;;;19.02;65.87
57462;BME280;43308;47.306;8.608;2023-09-19T10:02:26;95493.50;;;19.16;63.71
57462;BME280;43308;47.306;8.608;2023-09-19T10:04:57;95503.25;;;19.32;64.37
57462;BME280;43308;47.306;8.608;2023-09-19T10:07:40;95502.50;;;19.47;62.43
57462;BME280;43308;47.306;8.608;2023-09-19T10:10:08;95493.00;;;19.53;62.10
57462;BME280;43308;47.306;8.608;2023-09-19T10:12:48;95493.78;;;19.54;61.63
57462;BME280;43308;47.306;8.608;2023-09-19T10:15:18;95485.75;;;19.57;62.08
57462;BME280;43308;47.306;8.608;2023-09-19T10:17:47;95498.69;;;19.64;62.32
57462;BME280;43308;47.306;8.608;2023-09-19T10:20:16;95492.66;;;19.71;61.00
57462;BME280;43308;47.306;8.608;2023-09-19T10:22:50;95496.69;;;19.77;62.81
57462;BME280;43308;47.306;8.608;2023-09-19T10:25:27;95486.72;;;19.81;62.20
57462;BME280;43308;47.306;8.608;2023-09-19T10:28:02;95498.59;;;19.92;61.29
57462;BME280;43308;47.306;8.608;2023-09-19T10:30:50;95491.78;;;19.82;62.00
57462;BME280;43308;47.306;8.608;2023-09-19T10:33:23;95491.78;;;19.82;62.14
57462;BME280;43308;47.306;8.608;2023-09-19T10:35:53;95486.38;;;19.82;61.75
57462;BME280;43308;47.306;8.608;2023-09-19T10:38:26;95492.47;;;19.79;61.74
57462;BME280;43308;47.306;8.608;2023-09-19T10:40:56;95494.94;;;19.69;61.98
57462;BME280;43308;47.306;8.608;2023-09-19T10:43:30;95488.13;;;19.59;62.85
57462;BME280;43308;47.306;8.608;2023-09-19T10:46:02;95493.78;;;19.54;63.46
57462;BME280;43308;47.306;8.608;2023-09-19T10:48:32;95488.13;;;19.59;61.73
57462;BME280;43308;47.306;8.608;2023-09-19T10:51:21;95481.53;;;19.60;62.61
57462;BME280;43308;47.306;8.608;2023-09-19T10:54:07;95493.63;;;19.78;62.08
57462;BME280;43308;47.306;8.608;2023-09-19T10:56:42;95490.66;;;19.83;61.90
57462;BME280;43308;47.306;8.608;2023-09-19T10:59:15;95492.31;;;19.88;62.66
57462;BME280;43308;47.306;8.608;2023-09-19T11:01:47;95485.41;;;19.90;60.72
57462;BME280;43308;47.306;8.608;2023-09-19T11:04:37;95491.00;;;19.97;61.91
57462;BME280;43308;47.306;8.608;2023-09-19T11:07:06;95487.84;;;19.95;60.78
57462;BME280;43308;47.306;8.608;2023-09-19T11:09:49;95493.81;;;20.01;62.95
57462;BME280;43308;47.306;8.608;2023-09-19T11:15:01;95466.81;;;20.24;62.03
57462;BME280;43308;47.306;8.608;2023-09-19T11:17:37;95476.28;;;20.64;60.70
57462;BME280;43308;47.306;8.608;2023-09-19T11:30:45;95462.84;;;22.46;56.13
57462;BME280;43308;47.306;8.608;2023-09-19T11:36:10;95451.47;;;23.67;50.17
57462;BME280;43308;47.306;8.608;2023-09-19T11:49:31;95438.97;;;24.71;48.60
57462;BME280;43308;47.306;8.608;2023-09-19T11:51:59;95444.19;;;24.98;45.87
57462;BME280;43308;47.306;8.608;2023-09-19T11:54:31;95440.31;;;25.02;45.14
57462;BME280;43308;47.306;8.608;2023-09-19T11:56:58;95441.50;;;25.12;46.45
57462;BME280;43308;47.306;8.608;2023-09-19T11:59:26;95437.31;;;25.39;45.33
57462;BME280;43308;47.306;8.608;2023-09-19T12:02:04;95444.75;;;25.46;43.21
57462;BME280;43308;47.306;8.608;2023-09-19T12:04:40;95437.31;;;25.39;43.52
57462;BME280;43308;47.306;8.608;2023-09-19T12:07:12;95435.69;;;25.17;45.47
57462;BME280;43308;47.306;8.608;2023-09-19T12:09:42;95436.13;;;25.33;44.80
57462;BME280;43308;47.306;8.608;2023-09-19T12:12:10;95430.69;;;25.51;45.18
57462;BME280;43308;47.306;8.608;2023-09-19T12:14:47;95424.47;;;25.78;43.08
57462;BME280;43308;47.306;8.608;2023-09-19T12:17:13;95416.66;;;26.02;42.19
57462;BME280;43308;47.306;8.608;2023-09-19T12:19:58;95414.72;;;26.20;42.63
57462;BME280;43308;47.306;8.608;2023-09-19T12:22:24;95408.44;;;26.30;41.22
57462;BME280;43308;47.306;8.608;2023-09-19T12:24:50;95407.63;;;26.47;42.79
57462;BME280;43308;47.306;8.608;2023-09-19T12:27:19;95402.91;;;26.51;42.07
57462;BME280;43308;47.306;8.608;2023-09-19T12:29:47;95408.78;;;26.60;40.63
57462;BME280;43308;47.306;8.608;2023-09-19T12:32:16;95400.50;;;26.85;40.88
57462;BME280;43308;47.306;8.608;2023-09-19T12:34:55;95394.03;;;27.23;39.87
57462;BME280;43308;47.306;8.608;2023-09-19T12:37:20;95393.22;;;27.30;38.01
57462;BME280;43308;47.306;8.608;2023-09-19T12:39:49;95389.06;;;26.97;40.41
57462;BME280;43308;47.306;8.608;2023-09-19T12:42:19;95387.00;;;27.15;40.25
57462;BME280;43308;47.306;8.608;2023-09-19T12:44:48;95382.09;;;27.58;39.55
57462;BME280;43308;47.306;8.608;2023-09-19T12:47:16;95377.19;;;27.83;37.30
57462;BME280;43308;47.306;8.608;2023-09-19T12:50:15;95379.66;;;27.67;37.99
57462;BME280;43308;47.306;8.608;2023-09-19T12:52:49;95384.88;;;27.51;37.19
57462;BME280;43308;47.306;8.608;2023-09-19T12:55:25;95378.88;;;27.67;38.08
57462;BME280;43308;47.306;8.608;2023-09-19T12:58:13;95371.97;;;27.96;37.40
57462;BME280;43308;47.306;8.608;2023-09-19T13:00:42;95365.44;;;28.24;37.60
57462;BME280;43308;47.306;8.608;2023-09-19T13:05:51;95356.09;;;28.89;35.75
57462;BME280;43308;47.306;8.608;2023-09-19T13:08:27;95358.41;;;29.21;35.32
57462;BME280;43308;47.306;8.608;2023-09-19T13:13:40;95340.19;;;28.36;35.94
57462;BME280;43308;47.306;8.608;2023-09-19T13:16:07;95352.59;;;27.69;37.60
57462;BME280;43308;47.306;8.608;2023-09-19T13:21:17;95341.03;;;27.44;39.51
57462;BME280;43308;47.306;8.608;2023-09-19T13:23:54;95335.84;;;27.57;38.42
57462;BME280;43308;47.306;8.608;2023-09-19T13:26:25;95336.81;;;27.80;37.05
57462;BME280;43308;47.306;8.608;2023-09-19T13:28:51;95334.91;;;27.74;38.43
57462;BME280;43308;47.306;8.608;2023-09-19T13:31:17;95342.66;;;27.86;37.07
57462;BME280;43308;47.306;8.608;2023-09-19T13:33:44;95335.00;;;28.08;36.88
57462;BME280;43308;47.306;8.608;2023-09-19T13:36:11;95335.13;;;28.34;36.86
57462;BME280;43308;47.306;8.608;2023-09-19T13:38:39;95334.75;;;27.91;36.01
57462;BME280;43308;47.306;8.608;2023-09-19T13:41:07;95335.47;;;27.99;36.72
57462;BME280;43308;47.306;8.608;2023-09-19T13:43:33;95324.69;;;28.22;36.41
57462;BME280;43308;47.306;8.608;2023-09-19T13:45:59;95326.59;;;28.59;35.51
57462;BME280;43308;47.306;8.608;2023-09-19T13:48:25;95322.34;;;28.88;35.22
57462;BME280;43308;47.306;8.608;2023-09-19T13:50:52;95311.56;;;29.01;35.79
57462;BME280;43308;47.306;8.608;2023-09-19T13:53:17;95309.28;;;28.92;33.70
57462;BME280;43308;47.306;8.608;2023-09-19T13:55:44;95310.38;;;28.98;34.38
57462;BME280;43308;47.306;8.608;2023-09-19T13:58:10;95312.25;;;28.78;34.90
57462;BME280;43308;47.306;8.608;2023-09-19T14:00:37;95311.13;;;28.01;36.99
57462;BME280;43308;47.306;8.608;2023-09-19T14:03:04;95309.69;;;27.38;38.39
57462;BME280;43308;47.306;8.608;2023-09-19T14:05:30;95308.66;;;27.18;38.02
57462;BME280;43308;47.306;8.608;2023-09-19T14:07:56;95304.19;;;26.83;39.65
57462;BME280;43308;47.306;8.608;2023-09-19T14:10:22;95295.94;;;26.86;37.64
57462;BME280;43308;47.306;8.608;2023-09-19T14:12:48;95291.38;;;27.24;37.25
57462;BME280;43308;47.306;8.608;2023-09-19T14:15:14;95297.22;;;27.33;37.46
57462;BME280;43308;47.306;8.608;2023-09-19T14:17:40;95295.03;;;27.62;37.54
57462;BME280;43308;47.306;8.608;2023-09-19T14:20:12;95300.66;;;27.89;36.09
57462;BME280;43308;47.306;8.608;2023-09-19T14:22:39;95294.88;;;27.80;36.17
57462;BME280;43308;47.306;8.608;2023-09-19T14:25:05;95298.28;;;27.91;35.68
57462;BME280;43308;47.306;8.608;2023-09-19T14:27:31;95282.22;;;28.30;34.39
57462;BME280;43308;47.306;8.608;2023-09-19T14:29:57;95287.91;;;28.77;34.62
57462;BME280;43308;47.306;8.608;2023-09-19T14:32:23;95286.47;;;28.95;33.71
57462;BME280;43308;47.306;8.608;2023-09-19T14:34:49;95280.06;;;29.32;33.20